sensor_id;sensor_type;location;lat;lon;timestamp;pressure;altitude;pressure_sealevel;temperature;humidity
33845;BME280;20145;43.118;25.694;2023-04-28T00:00:17;99762.00;;;9.89;100.00
33845;BME280;20145;43.118;25.694;2023-04-28T00:02:42;99758.59;;;9.78;100.00
33845;BME280;20145;43.118;25.694;2023-04-28T00:05:08;99775.75;;;9.83;100.00
33845;BME280;20145;43.118;25.694;2023-04-28T00:07:34;99774.06;;;9.84;100.00
33845;BME280;20145;43.118;25.694;2023-04-28T00:09:59;99774.94;;;9.81;100.00
33845;BME280;20145;43.118;25.694;2023-04-28T00:12:25;99785.19;;;9.89;100.00
33845;BME280;20145;43.118;25.694;2023-04-28T00:14:50;99785.19;;;9.89;100.00
33845;BME280;20145;43.118;25.694;2023-04-28T00:17:17;99786.91;;;9.92;100.00
33845;BME280;20145;43.118;25.694;2023-04-28T00:19:42;99793.78;;;9.93;100.00
33845;BME280;20145;43.118;25.694;2023-04-28T00:22:09;99790.34;;;9.89;100.00
33845;BME280;20145;43.118;25.694;2023-04-28T00:24:34;99789.50;;;9.86;100.00
33845;BME280;20145;43.118;25.694;2023-04-28T00:27:00;99798.94;;;9.91;100.00
33845;BME280;20145;43.118;25.694;2023-04-28T00:29:28;99798.94;;;9.91;100.00
33845;BME280;20145;43.118;25.694;2023-04-28T00:31:54;99804.09;;;9.91;100.00
33845;BME280;20145;43.118;25.694;2023-04-28T00:34:19;99807.53;;;9.93;100.00
33845;BME280;20145;43.118;25.694;2023-04-28T00:36:45;99803.22;;;9.97;100.00
33845;BME280;20145;43.118;25.694;2023-04-28T00:39:10;99809.22;;;9.97;100.00
33845;BME280;20145;43.118;25.694;2023-04-28T00:41:36;99812.72;;;9.82;100.00
33845;BME280;20145;43.118;25.694;2023-04-28T00:44:01;99817.00;;;9.77;100.00
33845;BME280;20145;43.118;25.694;2023-04-28T00:46:29;99816.19;;;9.71;100.00
33845;BME280;20145;43.118;25.694;2023-04-28T00:48:57;99821.31;;;9.75;100.00
33845;BME280;20145;43.118;25.694;2023-04-28T00:51:22;99823.91;;;9.81;100.00
33845;BME280;20145;43.118;25.694;2023-04-28T00:53:49;99818.75;;;9.58;100.00
33845;BME280;20145;43.118;25.694;2023-04-28T00:56:15;99761.31;;;9.29;100.00
33845;BME280;20145;43.118;25.694;2023-04-28T00:58:41;99816.19;;;9.74;100.00
33845;BME280;20145;43.118;25.694;2023-04-28T01:01:08;99817.00;;;9.85;100.00
33845;BME280;20145;43.118;25.694;2023-04-28T01:03:36;99822.16;;;9.83;100.00
33845;BME280;20145;43.118;25.694;2023-04-28T01:06:06;99823.00;;;9.89;100.00
33845;BME280;20145;43.118;25.694;2023-04-28T01:08:33;99817.00;;;9.90;100.00
33845;BME280;20145;43.118;25.694;2023-04-28T01:10:59;99823.94;;;9.57;100.00
33845;BME280;20145;43.118;25.694;2023-04-28T01:13:24;99832.53;;;9.34;100.00
33845;BME280;20145;43.118;25.694;2023-04-28T01:15:50;99831.66;;;9.22;100.00
33845;BME280;20145;43.118;25.694;2023-04-28T01:18:16;99831.66;;;9.14;100.00
33845;BME280;20145;43.118;25.694;2023-04-28T01:20:42;99829.09;;;9.05;100.00
33845;BME280;20145;43.118;25.694;2023-04-28T01:23:15;99837.69;;;9.04;100.00
33845;BME280;20145;43.118;25.694;2023-04-28T01:25:41;99837.66;;;9.05;100.00
33845;BME280;20145;43.118;25.694;2023-04-28T01:28:08;99836.81;;;9.19;100.00
33845;BME280;20145;43.118;25.694;2023-04-28T01:30:34;99839.41;;;9.35;100.00
33845;BME280;20145;43.118;25.694;2023-04-28T01:33:01;99840.25;;;9.50;100.00
33845;BME280;20145;43.118;25.694;2023-04-28T01:35:26;99838.53;;;9.59;100.00
33845;BME280;20145;43.118;25.694;2023-04-28T01:37:52;99837.66;;;9.67;100.00
33845;BME280;20145;43.118;25.694;2023-04-28T01:40:18;99829.06;;;9.69;100.00
33845;BME280;20145;43.118;25.694;2023-04-28T01:42:43;99835.06;;;9.74;100.00
33845;BME280;20145;43.118;25.694;2023-04-28T01:45:09;99825.63;;;9.69;100.00
33845;BME280;20145;43.118;25.694;2023-04-28T01:47:35;99842.78;;;9.79;100.00
33845;BME280;20145;43.118;25.694;2023-04-28T01:50:01;99841.09;;;9.73;100.00
33845;BME280;20145;43.118;25.694;2023-04-28T01:52:26;99842.78;;;9.74;100.00
33845;BME280;20145;43.118;25.694;2023-04-28T01:54:53;99849.66;;;9.77;100.00
33845;BME280;20145;43.118;25.694;2023-04-28T01:57:19;99852.22;;;9.80;100.00
33845;BME280;20145;43.118;25.694;2023-04-28T01:59:45;99849.66;;;9.77;100.00
33845;BME280;20145;43.118;25.694;2023-04-28T02:02:10;99847.94;;;9.79;100.00
33845;BME280;20145;43.118;25.694;2023-04-28T02:04:39;99860.00;;;9.52;100.00
33845;BME280;20145;43.118;25.694;2023-04-28T02:07:05;99858.28;;;9.31;100.00
33845;BME280;20145;43.118;25.694;2023-04-28T02:09:32;99843.69;;;9.18;100.00
33845;BME280;20145;43.118;25.694;2023-04-28T02:11:58;99864.28;;;9.21;100.00
33845;BME280;20145;43.118;25.694;2023-04-28T02:14:27;99868.59;;;9.21;99.37
33845;BME280;20145;43.118;25.694;2023-04-28T02:16:53;99866.00;;;9.24;99.70
33845;BME280;20145;43.118;25.694;2023-04-28T02:19:18;99866.00;;;9.22;100.00
33845;BME280;20145;43.118;25.694;2023-04-28T02:21:44;99864.28;;;9.24;100.00
33845;BME280;20145;43.118;25.694;2023-04-28T02:24:10;99862.53;;;9.08;99.68
33845;BME280;20145;43.118;25.694;2023-04-28T02:26:36;99863.41;;;9.19;98.88
33845;BME280;20145;43.118;25.694;2023-04-28T02:29:01;99864.31;;;9.40;100.00
33845;BME280;20145;43.118;25.694;2023-04-28T02:31:29;99864.28;;;9.55;100.00
33845;BME280;20145;43.118;25.694;2023-04-28T02:33:55;99874.59;;;9.59;100.00
33845;BME280;20145;43.118;25.694;2023-04-28T02:36:21;99873.75;;;9.62;100.00
33845;BME280;20145;43.118;25.694;2023-04-28T02:38:46;99871.16;;;9.60;100.00
33845;BME280;20145;43.118;25.694;2023-04-28T02:41:12;99863.41;;;9.39;99.43
33845;BME280;20145;43.118;25.694;2023-04-28T02:43:39;99869.44;;;9.43;99.10
33845;BME280;20145;43.118;25.694;2023-04-28T02:46:05;99877.16;;;9.32;99.76
33845;BME280;20145;43.118;25.694;2023-04-28T02:48:32;99882.28;;;9.10;97.78
33845;BME280;20145;43.118;25.694;2023-04-28T02:51:00;99879.72;;;9.07;98.64
33845;BME280;20145;43.118;25.694;2023-04-28T02:53:26;99882.28;;;9.07;96.38
33845;BME280;20145;43.118;25.694;2023-04-28T02:55:51;99880.56;;;9.17;97.87
33845;BME280;20145;43.118;25.694;2023-04-28T02:58:17;99884.03;;;9.34;99.79
33845;BME280;20145;43.118;25.694;2023-04-28T03:00:43;99882.31;;;9.44;100.00
33845;BME280;20145;43.118;25.694;2023-04-28T03:03:08;99866.88;;;9.43;100.00
33845;BME280;20145;43.118;25.694;2023-04-28T03:05:34;99880.59;;;9.52;100.00
33845;BME280;20145;43.118;25.694;2023-04-28T03:07:59;99894.31;;;9.50;100.00
33845;BME280;20145;43.118;25.694;2023-04-28T03:10:25;99903.75;;;9.28;100.00
33845;BME280;20145;43.118;25.694;2023-04-28T03:12:51;99913.19;;;9.23;98.85
33845;BME280;20145;43.118;25.694;2023-04-28T03:15:16;99908.88;;;9.05;97.87
33845;BME280;20145;43.118;25.694;2023-04-28T03:17:42;99916.56;;;8.91;97.10
33845;BME280;20145;43.118;25.694;2023-04-28T03:20:08;99917.41;;;8.94;96.98
33845;BME280;20145;43.118;25.694;2023-04-28T03:22:35;99911.41;;;8.94;96.91
33845;BME280;20145;43.118;25.694;2023-04-28T03:25:01;99921.75;;;9.05;96.27
33845;BME280;20145;43.118;25.694;2023-04-28T03:27:27;99927.78;;;9.19;97.66
33845;BME280;20145;43.118;25.694;2023-04-28T03:29:53;99920.06;;;9.33;99.87
33845;BME280;20145;43.118;25.694;2023-04-28T03:32:18;99927.81;;;9.37;99.71
33845;BME280;20145;43.118;25.694;2023-04-28T03:34:44;99936.41;;;9.50;100.00
33845;BME280;20145;43.118;25.694;2023-04-28T03:37:10;99903.75;;;9.28;100.00
33845;BME280;20145;43.118;25.694;2023-04-28T03:39:35;99943.28;;;9.51;100.00
33845;BME280;20145;43.118;25.694;2023-04-28T03:42:01;99945.00;;;9.49;100.00
33845;BME280;20145;43.118;25.694;2023-04-28T03:44:26;99945.81;;;9.36;100.00
33845;BME280;20145;43.118;25.694;2023-04-28T03:46:52;99951.81;;;9.36;100.00
33845;BME280;20145;43.118;25.694;2023-04-28T03:49:17;99954.41;;;9.41;100.00
33845;BME280;20145;43.118;25.694;2023-04-28T03:51:43;99952.72;;;9.49;100.00
33845;BME280;20145;43.118;25.694;2023-04-28T03:54:09;99942.41;;;9.46;100.00
33845;BME280;20145;43.118;25.694;2023-04-28T03:56:34;99959.59;;;9.56;100.00
33845;BME280;20145;43.118;25.694;2023-04-28T03:59:00;99963.91;;;9.65;100.00
33845;BME280;20145;43.118;25.694;2023-04-28T04:01:25;99963.91;;;9.68;99.58
33845;BME280;20145;43.118;25.694;2023-04-28T04:03:51;99966.47;;;9.68;99.88
33845;BME280;20145;43.118;25.694;2023-04-28T04:06:16;99965.63;;;9.71;97.54
33845;BME280;20145;43.118;25.694;2023-04-28T04:08:42;99966.47;;;9.62;96.91
33845;BME280;20145;43.118;25.694;2023-04-28T04:11:08;99969.06;;;9.71;96.61
33845;BME280;20145;43.118;25.694;2023-04-28T04:13:33;99954.44;;;9.53;94.48
33845;BME280;20145;43.118;25.694;2023-04-28T04:15:59;99975.91;;;9.55;94.15
33845;BME280;20145;43.118;25.694;2023-04-28T04:18:25;99969.88;;;9.50;94.91
33845;BME280;20145;43.118;25.694;2023-04-28T04:20:51;99975.88;;;9.38;93.13
33845;BME280;20145;43.118;25.694;2023-04-28T04:23:20;99979.28;;;9.21;94.10
33845;BME280;20145;43.118;25.694;2023-04-28T04:25:46;99970.72;;;9.20;93.40
33845;BME280;20145;43.118;25.694;2023-04-28T04:28:11;99983.53;;;9.09;95.14
33845;BME280;20145;43.118;25.694;2023-04-28T04:30:37;99976.69;;;9.13;93.49
33845;BME280;20145;43.118;25.694;2023-04-28T04:33:02;99987.78;;;9.06;92.55
33845;BME280;20145;43.118;25.694;2023-04-28T04:35:28;99974.94;;;9.10;92.38
33845;BME280;20145;43.118;25.694;2023-04-28T04:37:53;99983.56;;;9.22;92.56
33845;BME280;20145;43.118;25.694;2023-04-28T04:40:19;99982.72;;;9.27;90.69
33845;BME280;20145;43.118;25.694;2023-04-28T04:42:45;99981.00;;;9.28;89.44
33845;BME280;20145;43.118;25.694;2023-04-28T04:45:10;99982.75;;;9.29;88.75
33845;BME280;20145;43.118;25.694;2023-04-28T04:47:36;99978.44;;;9.42;88.73
33845;BME280;20145;43.118;25.694;2023-04-28T04:50:02;99979.34;;;9.54;88.78
33845;BME280;20145;43.118;25.694;2023-04-28T04:52:28;99993.06;;;9.61;89.66
33845;BME280;20145;43.118;25.694;2023-04-28T04:54:53;99993.94;;;9.75;89.50
33845;BME280;20145;43.118;25.694;2023-04-28T04:57:21;99981.06;;;9.80;88.54
33845;BME280;20145;43.118;25.694;2023-04-28T04:59:47;99998.28;;;9.90;89.07
33845;BME280;20145;43.118;25.694;2023-04-28T05:02:12;100001.69;;;9.91;91.06
33845;BME280;20145;43.118;25.694;2023-04-28T05:04:38;100002.56;;;9.88;88.29
33845;BME280;20145;43.118;25.694;2023-04-28T05:07:04;100004.28;;;9.94;88.32
33845;BME280;20145;43.118;25.694;2023-04-28T05:09:29;100012.88;;;10.16;88.08
33845;BME280;20145;43.118;25.694;2023-04-28T05:11:56;100005.13;;;10.02;88.10
33845;BME280;20145;43.118;25.694;2023-04-28T05:14:22;100009.41;;;10.24;87.64
33845;BME280;20145;43.118;25.694;2023-04-28T05:16:48;100009.44;;;10.31;85.74
33845;BME280;20145;43.118;25.694;2023-04-28T05:19:14;100013.72;;;10.36;86.23
33845;BME280;20145;43.118;25.694;2023-04-28T05:21:39;100019.72;;;10.44;85.14
33845;BME280;20145;43.118;25.694;2023-04-28T05:24:05;100019.75;;;10.32;83.46
33845;BME280;20145;43.118;25.694;2023-04-28T05:26:30;100031.78;;;10.52;84.87
33845;BME280;20145;43.118;25.694;2023-04-28T05:28:56;100022.28;;;10.64;84.85
33845;BME280;20145;43.118;25.694;2023-04-28T05:31:21;100025.75;;;10.54;80.26
33845;BME280;20145;43.118;25.694;2023-04-28T05:33:47;100028.22;;;10.96;79.99
33845;BME280;20145;43.118;25.694;2023-04-28T05:36:13;100029.84;;;11.23;77.21
33845;BME280;20145;43.118;25.694;2023-04-28T05:38:41;100032.38;;;11.29;75.28
33845;BME280;20145;43.118;25.694;2023-04-28T05:41:07;100040.13;;;11.32;71.93
33845;BME280;20145;43.118;25.694;2023-04-28T05:43:32;100023.72;;;11.36;73.21
33845;BME280;20145;43.118;25.694;2023-04-28T05:45:59;100044.22;;;11.64;72.29
33845;BME280;20145;43.118;25.694;2023-04-28T05:48:24;100043.38;;;11.68;71.63
33845;BME280;20145;43.118;25.694;2023-04-28T05:50:50;100037.28;;;11.72;71.95
33845;BME280;20145;43.118;25.694;2023-04-28T05:53:16;100042.38;;;11.82;72.49
33845;BME280;20145;43.118;25.694;2023-04-28T05:55:41;100053.56;;;11.91;71.31
33845;BME280;20145;43.118;25.694;2023-04-28T05:58:07;100050.13;;;11.89;69.56
33845;BME280;20145;43.118;25.694;2023-04-28T06:00:33;100046.56;;;12.05;70.33
33845;BME280;20145;43.118;25.694;2023-04-28T06:02:59;100054.28;;;12.13;70.03
33845;BME280;20145;43.118;25.694;2023-04-28T06:05:25;100057.81;;;11.99;70.08
33845;BME280;20145;43.118;25.694;2023-04-28T06:07:50;100053.50;;;12.01;68.89
33845;BME280;20145;43.118;25.694;2023-04-28T06:10:17;100044.81;;;12.12;68.34
33845;BME280;20145;43.118;25.694;2023-04-28T06:12:43;100056.22;;;11.86;67.06
33845;BME280;20145;43.118;25.694;2023-04-28T06:15:08;100044.97;;;11.89;67.14
33845;BME280;20145;43.118;25.694;2023-04-28T06:17:34;100055.94;;;12.18;67.55
33845;BME280;20145;43.118;25.694;2023-04-28T06:20:00;100054.94;;;12.35;67.48
33845;BME280;20145;43.118;25.694;2023-04-28T06:22:26;100057.22;;;12.68;64.54
33845;BME280;20145;43.118;25.694;2023-04-28T06:24:51;100059.72;;;12.75;63.24
33845;BME280;20145;43.118;25.694;2023-04-28T06:27:17;100059.47;;;13.01;60.70
33845;BME280;20145;43.118;25.694;2023-04-28T06:29:43;100055.97;;;13.03;59.49
33845;BME280;20145;43.118;25.694;2023-04-28T06:32:09;100057.72;;;13.00;62.42
33845;BME280;20145;43.118;25.694;2023-04-28T06:34:35;100064.09;;;13.47;59.21
33845;BME280;20145;43.118;25.694;2023-04-28T06:37:01;100053.97;;;13.28;60.64
33845;BME280;20145;43.118;25.694;2023-04-28T06:39:27;100048.53;;;13.48;61.84
33845;BME280;20145;43.118;25.694;2023-04-28T06:41:53;100063.50;;;13.26;56.38
33845;BME280;20145;43.118;25.694;2023-04-28T06:44:18;100059.53;;;12.93;57.61
33845;BME280;20145;43.118;25.694;2023-04-28T06:46:44;100057.81;;;12.95;58.51
33845;BME280;20145;43.118;25.694;2023-04-28T06:49:10;100045.50;;;13.12;59.15
33845;BME280;20145;43.118;25.694;2023-04-28T06:51:35;100051.41;;;13.27;55.44
33845;BME280;20145;43.118;25.694;2023-04-28T06:54:01;100062.59;;;13.30;56.47
33845;BME280;20145;43.118;25.694;2023-04-28T06:56:27;100051.13;;;13.47;54.99
33845;BME280;20145;43.118;25.694;2023-04-28T06:58:56;100050.19;;;13.54;56.22
33845;BME280;20145;43.118;25.694;2023-04-28T07:01:23;100058.81;;;13.56;56.55
33845;BME280;20145;43.118;25.694;2023-04-28T07:03:49;100047.41;;;13.66;57.42
33845;BME280;20145;43.118;25.694;2023-04-28T07:06:14;100054.75;;;13.97;58.39
33845;BME280;20145;43.118;25.694;2023-04-28T07:08:41;100056.25;;;14.10;52.64
33845;BME280;20145;43.118;25.694;2023-04-28T07:11:06;100057.25;;;14.01;49.26
33845;BME280;20145;43.118;25.694;2023-04-28T07:13:32;100061.94;;;14.32;52.66
33845;BME280;20145;43.118;25.694;2023-04-28T07:15:58;100059.19;;;14.43;48.99
33845;BME280;20145;43.118;25.694;2023-04-28T07:18:23;100061.50;;;14.60;46.15
33845;BME280;20145;43.118;25.694;2023-04-28T07:20:50;100065.59;;;14.73;45.83
33845;BME280;20145;43.118;25.694;2023-04-28T07:23:15;100064.31;;;14.46;46.47
33845;BME280;20145;43.118;25.694;2023-04-28T07:25:41;100058.59;;;14.77;49.75
33845;BME280;20145;43.118;25.694;2023-04-28T07:28:07;100056.72;;;14.85;51.52
33845;BME280;20145;43.118;25.694;2023-04-28T07:30:33;100053.31;;;14.83;52.63
33845;BME280;20145;43.118;25.694;2023-04-28T07:32:59;100052.41;;;14.84;48.89
33845;BME280;20145;43.118;25.694;2023-04-28T07:35:25;100052.16;;;14.96;49.15
33845;BME280;20145;43.118;25.694;2023-04-28T07:37:51;100054.81;;;15.38;46.03
33845;BME280;20145;43.118;25.694;2023-04-28T07:40:16;100050.19;;;15.07;43.71
33845;BME280;20145;43.118;25.694;2023-04-28T07:42:42;100056.94;;;15.17;44.43
33845;BME280;20145;43.118;25.694;2023-04-28T07:45:08;100046.88;;;15.02;44.85
33845;BME280;20145;43.118;25.694;2023-04-28T07:47:34;100048.19;;;14.77;44.41
33845;BME280;20145;43.118;25.694;2023-04-28T07:50:02;100056.81;;;14.29;46.97
33845;BME280;20145;43.118;25.694;2023-04-28T07:52:30;100047.50;;;14.16;45.63
33845;BME280;20145;43.118;25.694;2023-04-28T07:54:56;100041.00;;;13.90;44.83
33845;BME280;20145;43.118;25.694;2023-04-28T07:57:22;100049.09;;;13.69;46.73
33845;BME280;20145;43.118;25.694;2023-04-28T07:59:47;100044.66;;;13.78;48.23
33845;BME280;20145;43.118;25.694;2023-04-28T08:02:13;100046.28;;;13.86;48.22
33845;BME280;20145;43.118;25.694;2023-04-28T08:04:39;100048.28;;;13.65;47.76
33845;BME280;20145;43.118;25.694;2023-04-28T08:07:05;100044.34;;;13.39;48.17
33845;BME280;20145;43.118;25.694;2023-04-28T08:09:31;100044.50;;;13.26;50.24
33845;BME280;20145;43.118;25.694;2023-04-28T08:11:57;100055.03;;;13.10;49.69
33845;BME280;20145;43.118;25.694;2023-04-28T08:14:23;100045.50;;;13.14;50.29
33845;BME280;20145;43.118;25.694;2023-04-28T08:16:49;100044.34;;;13.38;50.25
33845;BME280;20145;43.118;25.694;2023-04-28T08:19:15;100044.84;;;13.63;46.37
33845;BME280;20145;43.118;25.694;2023-04-28T08:21:40;100042.06;;;13.78;45.09
33845;BME280;20145;43.118;25.694;2023-04-28T08:24:06;100033.00;;;14.04;45.33
33845;BME280;20145;43.118;25.694;2023-04-28T08:26:35;100034.53;;;14.16;45.83
33845;BME280;20145;43.118;25.694;2023-04-28T08:29:01;100037.00;;;14.25;46.10
33845;BME280;20145;43.118;25.694;2023-04-28T08:31:27;100034.09;;;14.42;45.31
33845;BME280;20145;43.118;25.694;2023-04-28T08:33:53;100029.69;;;14.47;45.36
33845;BME280;20145;43.118;25.694;2023-04-28T08:36:18;100015.06;;;13.90;45.93
33845;BME280;20145;43.118;25.694;2023-04-28T08:38:44;100023.31;;;13.61;46.50
33845;BME280;20145;43.118;25.694;2023-04-28T08:41:12;100018.28;;;13.50;47.87
33845;BME280;20145;43.118;25.694;2023-04-28T08:43:38;100020.91;;;13.46;46.75
33845;BME280;20145;43.118;25.694;2023-04-28T08:46:07;100020.75;;;13.58;47.45
33845;BME280;20145;43.118;25.694;2023-04-28T08:48:41;100025.06;;;13.57;47.49
33845;BME280;20145;43.118;25.694;2023-04-28T08:51:08;100010.59;;;13.44;45.17
33845;BME280;20145;43.118;25.694;2023-04-28T08:53:37;100025.97;;;13.55;46.56
33845;BME280;20145;43.118;25.694;2023-04-28T08:56:07;100017.59;;;13.95;44.98
33845;BME280;20145;43.118;25.694;2023-04-28T08:58:34;100014.41;;;13.77;44.64
33845;BME280;20145;43.118;25.694;2023-04-28T09:01:01;100009.41;;;13.67;44.06
33845;BME280;20145;43.118;25.694;2023-04-28T09:03:29;100011.41;;;14.03;44.99
33845;BME280;20145;43.118;25.694;2023-04-28T09:05:55;100010.84;;;13.84;47.60
33845;BME280;20145;43.118;25.694;2023-04-28T09:08:20;99999.81;;;13.70;47.84
33845;BME280;20145;43.118;25.694;2023-04-28T09:10:46;100009.59;;;13.53;45.31
33845;BME280;20145;43.118;25.694;2023-04-28T09:13:24;100009.88;;;13.30;45.80
33845;BME280;20145;43.118;25.694;2023-04-28T09:15:56;100002.72;;;13.50;46.35
33845;BME280;20145;43.118;25.694;2023-04-28T09:18:23;100007.09;;;14.02;45.36
33845;BME280;20145;43.118;25.694;2023-04-28T09:20:49;100005.94;;;14.19;41.67
33845;BME280;20145;43.118;25.694;2023-04-28T09:23:19;100007.72;;;14.17;44.18
33845;BME280;20145;43.118;25.694;2023-04-28T09:26:05;100003.97;;;14.33;42.26
33845;BME280;20145;43.118;25.694;2023-04-28T09:28:33;99998.31;;;14.61;42.48
33845;BME280;20145;43.118;25.694;2023-04-28T09:30:59;99997.59;;;14.51;41.69
33845;BME280;20145;43.118;25.694;2023-04-28T09:33:25;99993.78;;;14.22;44.68
33845;BME280;20145;43.118;25.694;2023-04-28T09:35:51;100001.22;;;13.91;45.97
33845;BME280;20145;43.118;25.694;2023-04-28T09:38:19;99995.59;;;13.65;47.12
33845;BME280;20145;43.118;25.694;2023-04-28T09:41:00;99990.56;;;13.54;47.80
33845;BME280;20145;43.118;25.694;2023-04-28T09:43:35;99981.13;;;13.50;47.75
33845;BME280;20145;43.118;25.694;2023-04-28T09:46:03;99981.13;;;13.48;48.11
33845;BME280;20145;43.118;25.694;2023-04-28T09:48:34;99993.91;;;13.60;47.54
33845;BME280;20145;43.118;25.694;2023-04-28T09:51:02;99985.91;;;13.74;45.45
33845;BME280;20145;43.118;25.694;2023-04-28T09:53:29;99981.47;;;13.82;46.97
33845;BME280;20145;43.118;25.694;2023-04-28T09:55:56;99976.88;;;13.98;45.93
33845;BME280;20145;43.118;25.694;2023-04-28T09:58:24;99969.44;;;13.78;47.20
33845;BME280;20145;43.118;25.694;2023-04-28T10:00:57;99972.59;;;13.97;44.89
33845;BME280;20145;43.118;25.694;2023-04-28T10:03:25;99970.66;;;14.09;45.91
33845;BME280;20145;43.118;25.694;2023-04-28T10:05:52;99967.06;;;14.17;41.84
33845;BME280;20145;43.118;25.694;2023-04-28T10:08:20;99930.91;;;14.06;45.15
33845;BME280;20145;43.118;25.694;2023-04-28T10:10:49;99945.50;;;14.12;43.94
33845;BME280;20145;43.118;25.694;2023-04-28T10:13:19;99961.94;;;14.13;45.47
33845;BME280;20145;43.118;25.694;2023-04-28T10:15:46;99958.31;;;13.72;43.92
33845;BME280;20145;43.118;25.694;2023-04-28T10:18:12;99958.91;;;13.88;46.21
33845;BME280;20145;43.118;25.694;2023-04-28T10:21:02;99964.50;;;14.14;45.45
33845;BME280;20145;43.118;25.694;2023-04-28T10:25:56;99961.78;;;14.22;45.25
33845;BME280;20145;43.118;25.694;2023-04-28T10:28:22;99963.78;;;14.56;45.42
33845;BME280;20145;43.118;25.694;2023-04-28T10:31:13;99961.47;;;14.84;44.47
33845;BME280;20145;43.118;25.694;2023-04-28T10:33:40;99950.72;;;15.01;43.95
33845;BME280;20145;43.118;25.694;2023-04-28T10:36:07;99945.75;;;14.90;45.26
33845;BME280;20145;43.118;25.694;2023-04-28T10:38:35;99952.22;;;14.70;44.36
33845;BME280;20145;43.118;25.694;2023-04-28T10:41:01;99953.69;;;14.84;43.91
33845;BME280;20145;43.118;25.694;2023-04-28T10:58:48;99935.88;;;14.65;44.62
33845;BME280;20145;43.118;25.694;2023-04-28T11:06:22;99927.09;;;14.71;44.35
33845;BME280;20145;43.118;25.694;2023-04-28T11:08:51;99924.81;;;14.98;43.21
33845;BME280;20145;43.118;25.694;2023-04-28T11:11:21;99914.84;;;14.78;44.18
33845;BME280;20145;43.118;25.694;2023-04-28T11:13:49;99912.44;;;14.68;44.84
33845;BME280;20145;43.118;25.694;2023-04-28T11:16:19;99923.66;;;14.70;43.52
33845;BME280;20145;43.118;25.694;2023-04-28T11:18:49;99926.88;;;14.82;42.72
33845;BME280;20145;43.118;25.694;2023-04-28T11:21:15;99916.25;;;14.94;42.47
33845;BME280;20145;43.118;25.694;2023-04-28T11:23:42;99924.53;;;15.10;42.87
33845;BME280;20145;43.118;25.694;2023-04-28T11:26:08;99922.22;;;14.98;41.07
33845;BME280;20145;43.118;25.694;2023-04-28T11:28:34;99909.81;;;14.70;43.75
33845;BME280;20145;43.118;25.694;2023-04-28T11:31:10;99927.28;;;14.63;44.13
33845;BME280;20145;43.118;25.694;2023-04-28T11:33:37;99917.81;;;14.61;43.18
33845;BME280;20145;43.118;25.694;2023-04-28T11:36:04;99924.72;;;14.60;44.29
33845;BME280;20145;43.118;25.694;2023-04-28T11:38:29;99913.31;;;14.67;43.14
33845;BME280;20145;43.118;25.694;2023-04-28T11:41:07;99920.00;;;14.79;42.79
33845;BME280;20145;43.118;25.694;2023-04-28T11:43:32;99929.00;;;15.05;42.07
33845;BME280;20145;43.118;25.694;2023-04-28T11:45:58;99941.00;;;15.10;40.99
33845;BME280;20145;43.118;25.694;2023-04-28T11:48:23;99919.00;;;15.25;41.39
33845;BME280;20145;43.118;25.694;2023-04-28T11:50:49;99918.53;;;15.45;40.58
33845;BME280;20145;43.118;25.694;2023-04-28T11:53:14;99914.03;;;15.52;41.72
33845;BME280;20145;43.118;25.694;2023-04-28T11:55:40;99917.16;;;15.66;41.58
33845;BME280;20145;43.118;25.694;2023-04-28T11:58:21;99911.53;;;16.17;41.90
33845;BME280;20145;43.118;25.694;2023-04-28T12:01:11;99904.66;;;16.46;40.86
33845;BME280;20145;43.118;25.694;2023-04-28T12:03:45;99896.44;;;16.61;40.19
33845;BME280;20145;43.118;25.694;2023-04-28T12:06:10;99886.91;;;16.90;39.35
33845;BME280;20145;43.118;25.694;2023-04-28T12:08:37;99888.97;;;17.08;38.81
33845;BME280;20145;43.118;25.694;2023-04-28T12:11:13;99886.47;;;17.32;39.64
33845;BME280;20145;43.118;25.694;2023-04-28T12:13:40;99876.44;;;17.20;40.32
33845;BME280;20145;43.118;25.694;2023-04-28T12:16:06;99877.16;;;17.25;39.35
33845;BME280;20145;43.118;25.694;2023-04-28T12:18:35;99877.59;;;17.11;39.37
33845;BME280;20145;43.118;25.694;2023-04-28T12:21:02;99872.56;;;16.14;39.56
33845;BME280;20145;43.118;25.694;2023-04-28T12:23:34;99869.16;;;15.79;41.20
33845;BME280;20145;43.118;25.694;2023-04-28T12:26:01;99853.06;;;15.98;40.22
33845;BME280;20145;43.118;25.694;2023-04-28T12:28:39;99863.16;;;15.42;40.19
33845;BME280;20145;43.118;25.694;2023-04-28T12:31:07;99861.31;;;16.14;40.04
33845;BME280;20145;43.118;25.694;2023-04-28T12:33:34;99852.13;;;16.32;38.56
33845;BME280;20145;43.118;25.694;2023-04-28T12:36:04;99837.16;;;16.09;41.59
33845;BME280;20145;43.118;25.694;2023-04-28T12:38:32;99845.22;;;15.99;42.54
33845;BME280;20145;43.118;25.694;2023-04-28T12:40:58;99843.75;;;15.89;42.80
33845;BME280;20145;43.118;25.694;2023-04-28T12:43:24;99846.38;;;15.53;42.98
33845;BME280;20145;43.118;25.694;2023-04-28T12:45:52;99848.41;;;15.76;43.97
33845;BME280;20145;43.118;25.694;2023-04-28T12:48:19;99843.31;;;16.04;43.45
33845;BME280;20145;43.118;25.694;2023-04-28T12:50:45;99838.53;;;15.89;42.22
33845;BME280;20145;43.118;25.694;2023-04-28T12:53:11;99848.16;;;15.51;41.47
33845;BME280;20145;43.118;25.694;2023-04-28T12:55:36;99843.63;;;15.59;42.55
33845;BME280;20145;43.118;25.694;2023-04-28T12:58:04;99840.50;;;15.47;42.83
33845;BME280;20145;43.118;25.694;2023-04-28T13:00:30;99843.47;;;15.31;41.99
33845;BME280;20145;43.118;25.694;2023-04-28T13:02:56;99839.22;;;14.90;41.77
33845;BME280;20145;43.118;25.694;2023-04-28T13:05:21;99831.66;;;14.81;43.29
33845;BME280;20145;43.118;25.694;2023-04-28T13:07:47;99831.75;;;14.76;44.06